createdAt,value
2022-09-28T00:00:23.125Z,73.83
2022-09-28T00:01:45.006Z,73.74
2022-09-28T00:02:47.639Z,73.39
2022-09-28T00:03:51.520Z,73.19
2022-09-28T00:04:53.505Z,72.84
2022-09-28T00:06:01.595Z,72.73
2022-09-28T00:07:03.306Z,72.61
2022-09-28T00:08:04.960Z,72.53
2022-09-28T00:09:07.033Z,72.55
2022-09-28T00:10:09.093Z,72.48
2022-09-28T00:11:14.566Z,72.54
2022-09-28T00:12:16.191Z,72.63
2022-09-28T00:13:17.959Z,72.66
2022-09-28T00:14:20.457Z,72.79
2022-09-28T00:15:24.048Z,72.85
2022-09-28T00:16:28.907Z,72.93
2022-09-28T00:17:30.967Z,72.88
2022-09-28T00:18:33.309Z,72.89
2022-09-28T00:19:34.973Z,72.80
2022-09-28T00:20:37.090Z,72.79
2022-09-28T00:21:40.452Z,72.86
2022-09-28T00:22:42.291Z,72.81
2022-09-28T00:24:03.561Z,72.76
2022-09-28T00:25:06.711Z,72.75
2022-09-28T00:26:08.344Z,72.72
2022-09-28T00:27:10.031Z,72.82
2022-09-28T00:28:11.685Z,72.94
2022-09-28T00:29:32.978Z,72.80
2022-09-28T00:30:34.839Z,72.74
2022-09-28T00:31:36.868Z,73.09
2022-09-28T00:32:38.833Z,73.26
2022-09-28T00:33:40.487Z,73.34
2022-09-28T00:34:48.024Z,73.45
2022-09-28T00:35:57.617Z,73.29
2022-09-28T00:37:00.703Z,73.26
2022-09-28T00:38:03.195Z,73.43
2022-09-28T00:39:07.536Z,73.36
2022-09-28T00:40:09.398Z,73.14
2022-09-28T00:41:11.453Z,73.00
2022-09-28T00:42:14.981Z,72.84
2022-09-28T00:43:18.764Z,72.80
2022-09-28T00:44:26.519Z,72.89
2022-09-28T00:45:30.080Z,73.09
2022-09-28T00:46:34.611Z,73.03
2022-09-28T00:47:51.760Z,73.03
2022-09-28T00:49:17.079Z,73.13
2022-09-28T00:50:29.138Z,73.08
2022-09-28T00:51:31.900Z,73.25
2022-09-28T00:52:35.799Z,73.23
2022-09-28T00:53:42.242Z,73.29
2022-09-28T00:54:46.921Z,73.34
2022-09-28T00:55:54.058Z,73.54
2022-09-28T00:56:57.155Z,73.39
2022-09-28T00:58:03.101Z,73.33
2022-09-28T00:59:08.026Z,73.36
2022-09-28T01:00:10.652Z,73.54
2022-09-28T01:01:12.917Z,73.64
2022-09-28T01:02:15.046Z,73.48
2022-09-28T01:03:16.951Z,73.34
2022-09-28T01:04:18.777Z,73.29
2022-09-28T01:05:22.295Z,73.39
2022-09-28T01:06:30.358Z,73.47
2022-09-28T01:07:33.984Z,73.29
2022-09-28T01:08:36.619Z,73.21
2022-09-28T01:09:39.988Z,73.20
2022-09-28T01:10:44.852Z,73.17
2022-09-28T01:11:47.111Z,73.23
2022-09-28T01:12:48.914Z,73.35
2022-09-28T01:13:54.184Z,73.34
2022-09-28T01:14:57.866Z,73.40
2022-09-28T01:16:07.406Z,73.45
2022-09-28T01:17:20.232Z,73.53
2022-09-28T01:18:44.914Z,73.52
2022-09-28T01:20:05.895Z,73.63
2022-09-28T01:21:18.632Z,73.73
2022-09-28T01:22:45.196Z,73.76
2022-09-28T01:23:59.596Z,73.75
2022-09-28T01:25:11.551Z,73.59
2022-09-28T01:26:13.095Z,73.86
2022-09-28T01:27:48.758Z,73.82
2022-09-28T01:29:03.952Z,74.19
2022-09-28T01:30:11.359Z,74.16
2022-09-28T01:32:51.756Z,74.38
2022-09-28T01:34:17.594Z,74.32
2022-09-28T01:35:19.128Z,74.19
2022-09-28T01:36:26.799Z,74.04
2022-09-28T01:37:44.218Z,74.23
2022-09-28T01:38:51.496Z,74.22
2022-09-28T01:39:56.620Z,74.35
2022-09-28T01:41:00.062Z,74.11
2022-09-28T01:42:11.299Z,74.20
2022-09-28T01:43:42.293Z,74.07
2022-09-28T01:44:46.898Z,74.25
2022-09-28T01:45:54.071Z,74.19
2022-09-28T01:47:02.952Z,74.22
2022-09-28T01:48:07.296Z,74.31
2022-09-28T01:49:26.377Z,74.18
2022-09-28T01:50:33.520Z,74.22
2022-09-28T01:51:41.172Z,74.33
2022-09-28T01:53:00.848Z,74.49
2022-09-28T01:54:31.809Z,74.51
2022-09-28T01:55:41.588Z,74.66
2022-09-28T01:56:53.623Z,74.60
2022-09-28T01:58:12.849Z,74.90
2022-09-28T01:59:23.928Z,74.93
2022-09-28T02:00:27.079Z,75.02
2022-09-28T02:01:47.227Z,74.86
2022-09-28T02:03:19.081Z,75.09
2022-09-28T02:04:36.507Z,75.32
2022-09-28T02:05:41.971Z,74.87
2022-09-28T02:07:12.211Z,75.17
2022-09-28T02:08:28.405Z,75.56
2022-09-28T02:09:57.817Z,75.58
2022-09-28T02:11:12.699Z,75.76
2022-09-28T02:12:22.545Z,75.98
2022-09-28T02:13:31.113Z,75.71
2022-09-28T02:14:36.833Z,75.75
2022-09-28T02:15:53.279Z,75.81
2022-09-28T02:16:56.791Z,75.99
2022-09-28T02:18:04.617Z,76.03
2022-09-28T02:19:11.413Z,75.98
2022-09-28T02:20:14.865Z,76.11
2022-09-28T02:21:31.102Z,76.03
2022-09-28T02:22:47.246Z,76.14
2022-09-28T02:23:56.839Z,76.34
2022-09-28T02:25:07.191Z,76.34
2022-09-28T02:26:13.646Z,76.36
2022-09-28T02:27:26.278Z,76.13
2022-09-28T02:28:27.963Z,76.08
2022-09-28T02:29:29.699Z,75.93
2022-09-28T02:30:35.123Z,75.85
2022-09-28T02:31:36.958Z,75.81
2022-09-28T02:32:43.442Z,75.66
2022-09-28T02:33:46.751Z,75.70
2022-09-28T02:34:48.475Z,75.78
2022-09-28T02:35:50.766Z,75.77
2022-09-28T02:36:53.570Z,75.71
2022-09-28T02:37:55.960Z,75.80
2022-09-28T02:38:58.244Z,75.84
2022-09-28T02:40:00.156Z,75.82
2022-09-28T02:41:39.966Z,75.80
2022-09-28T02:43:05.760Z,75.88
2022-09-28T02:44:38.314Z,75.88
2022-09-28T02:45:46.098Z,75.98
2022-09-28T02:47:09.530Z,75.83
2022-09-28T02:49:04.934Z,75.81
2022-09-28T02:50:34.886Z,76.03
2022-09-28T02:52:09.924Z,75.87
2022-09-28T02:53:23.571Z,75.86
2022-09-28T02:54:46.933Z,75.73
2022-09-28T02:56:06.231Z,75.75
2022-09-28T02:57:45.622Z,75.82
2022-09-28T02:59:12.688Z,75.97
2022-09-28T03:00:19.281Z,75.95
2022-09-28T03:01:40.656Z,75.91
2022-09-28T03:02:47.877Z,76.09
2022-09-28T03:04:27.550Z,76.28
2022-09-28T03:05:48.511Z,76.42
2022-09-28T03:07:09.494Z,76.51
2022-09-28T03:08:15.548Z,76.70
2022-09-28T03:09:23.627Z,76.70
2022-09-28T03:10:36.653Z,76.73
2022-09-28T03:11:48.162Z,76.75
2022-09-28T03:12:53.091Z,76.76
2022-09-28T03:13:55.587Z,76.82
2022-09-28T03:15:13.910Z,76.95
2022-09-28T03:16:18.848Z,76.97
2022-09-28T03:17:22.464Z,76.99
2022-09-28T03:18:24.100Z,76.95
2022-09-28T03:19:31.095Z,76.83
2022-09-28T03:20:34.619Z,76.87
2022-09-28T03:21:36.299Z,76.83
2022-09-28T03:22:38.392Z,76.77
2022-09-28T03:23:40.715Z,76.70
2022-09-28T03:24:42.471Z,76.63
2022-09-28T03:25:44.190Z,76.65
2022-09-28T03:26:45.889Z,76.71
2022-09-28T03:27:47.784Z,76.73
2022-09-28T03:28:49.744Z,76.74
2022-09-28T03:29:56.020Z,76.83
2022-09-28T03:30:58.056Z,76.76
2022-09-28T03:32:00.758Z,76.84
2022-09-28T03:33:02.514Z,76.84
2022-09-28T03:34:05.860Z,76.97
2022-09-28T03:35:08.794Z,77.09
2022-09-28T03:36:10.824Z,77.12
2022-09-28T03:37:14.835Z,77.22
2022-09-28T03:38:19.916Z,77.32
2022-09-28T03:39:21.546Z,77.45
2022-09-28T03:40:23.806Z,77.54
2022-09-28T03:41:28.993Z,77.65
2022-09-28T03:42:30.932Z,77.72
2022-09-28T03:43:32.727Z,77.80
2022-09-28T03:44:34.838Z,77.88
2022-09-28T03:45:36.600Z,77.75
2022-09-28T03:46:38.296Z,77.78
2022-09-28T03:47:46.104Z,77.92
2022-09-28T03:48:47.845Z,78.08
2022-09-28T03:49:49.572Z,78.07
2022-09-28T03:50:55.712Z,78.17
2022-09-28T03:51:58.435Z,78.28
2022-09-28T03:53:03.580Z,78.42
2022-09-28T03:54:05.586Z,78.51
2022-09-28T03:55:07.767Z,78.48
2022-09-28T03:56:14.756Z,78.38
2022-09-28T03:57:17.138Z,78.54
2022-09-28T03:58:20.525Z,78.68
2022-09-28T03:59:22.264Z,78.71
2022-09-28T04:00:24.188Z,78.73
2022-09-28T04:01:26.345Z,78.44
2022-09-28T04:02:28.310Z,78.51
2022-09-28T04:03:30.956Z,78.63
2022-09-28T04:04:32.903Z,78.68
2022-09-28T04:05:34.719Z,78.60
2022-09-28T04:06:36.484Z,78.61
2022-09-28T04:07:39.901Z,78.71
2022-09-28T04:08:42.652Z,78.73
2022-09-28T04:09:44.364Z,78.79
2022-09-28T04:10:46.741Z,78.88
2022-09-28T04:12:03.328Z,78.92
2022-09-28T04:13:06.135Z,79.11
2022-09-28T04:14:08.307Z,79.00
2022-09-28T04:15:10.705Z,78.95
2022-09-28T04:16:12.469Z,78.81
2022-09-28T04:17:17.535Z,78.91
2022-09-28T04:18:19.791Z,78.94
2022-09-28T04:19:39.825Z,79.18
2022-09-28T04:21:15.653Z,79.19
2022-09-28T04:22:24.123Z,79.45
2022-09-28T04:23:27.476Z,79.19
2022-09-28T04:24:29.322Z,79.21
2022-09-28T04:25:31.352Z,79.11
2022-09-28T04:26:33.062Z,79.22
2022-09-28T04:27:53.292Z,79.17
2022-09-28T04:29:13.772Z,79.34
2022-09-28T04:30:17.453Z,79.39
2022-09-28T04:31:22.201Z,79.45
2022-09-28T04:32:24.201Z,79.48
2022-09-28T04:33:26.158Z,79.51
2022-09-28T04:34:31.891Z,79.56
2022-09-28T04:35:36.368Z,79.62
2022-09-28T04:36:38.278Z,79.56
2022-09-28T04:37:40.136Z,79.64
2022-09-28T04:38:52.787Z,79.48
2022-09-28T04:39:56.690Z,79.85
2022-09-28T04:40:58.447Z,79.75
2022-09-28T04:42:00.526Z,79.79
2022-09-28T04:43:02.939Z,79.89
2022-09-28T04:44:04.718Z,79.98
2022-09-28T04:45:07.208Z,80.06
2022-09-28T04:46:12.880Z,80.20
2022-09-28T04:47:21.619Z,80.21
2022-09-28T04:48:49.246Z,80.17
2022-09-28T04:50:06.798Z,80.19
2022-09-28T04:51:11.009Z,80.31
2022-09-28T04:52:18.071Z,80.28
2022-09-28T04:53:23.437Z,80.39
2022-09-28T04:54:25.154Z,80.44
2022-09-28T04:55:31.644Z,80.45
2022-09-28T04:56:34.725Z,80.46
2022-09-28T04:57:36.427Z,80.49
2022-09-28T04:58:38.935Z,80.55
2022-09-28T04:59:40.890Z,80.58
2022-09-28T05:00:42.630Z,80.52
2022-09-28T05:01:55.469Z,80.61
2022-09-28T05:03:15.617Z,80.85
2022-09-28T05:04:37.197Z,80.94
2022-09-28T05:05:48.340Z,80.93
2022-09-28T05:07:11.794Z,81.07
2022-09-28T05:08:13.615Z,80.84
2022-09-28T05:09:16.067Z,80.76
2022-09-28T05:10:19.276Z,80.77
2022-09-28T05:11:22.177Z,80.73
2022-09-28T05:12:24.022Z,80.76
2022-09-28T05:13:25.816Z,80.70
2022-09-28T05:14:27.551Z,80.71
2022-09-28T05:15:30.375Z,80.73
2022-09-28T05:16:33.230Z,80.93
2022-09-28T05:18:05.003Z,81.00
2022-09-28T05:19:21.357Z,81.10
2022-09-28T05:20:24.004Z,80.88
2022-09-28T05:21:27.319Z,80.88
2022-09-28T05:22:29.080Z,81.22
2022-09-28T05:23:30.969Z,81.30
2022-09-28T05:24:34.301Z,81.39
2022-09-28T05:25:36.078Z,81.38
2022-09-28T05:26:44.451Z,81.47
2022-09-28T05:27:46.122Z,81.34
2022-09-28T05:29:04.361Z,81.38
2022-09-28T05:30:15.225Z,81.44
2022-09-28T05:31:31.774Z,81.49
2022-09-28T05:32:43.976Z,81.52
2022-09-28T05:34:06.447Z,81.62
2022-09-28T05:35:10.410Z,81.52
2022-09-28T05:36:16.181Z,81.61
2022-09-28T05:37:18.018Z,81.63
2022-09-28T05:38:20.248Z,81.75
2022-09-28T05:39:22.236Z,81.79
2022-09-28T05:40:24.072Z,81.85
2022-09-28T05:41:25.907Z,81.88
2022-09-28T05:42:27.653Z,81.92
2022-09-28T05:43:29.523Z,81.99
2022-09-28T05:44:31.329Z,81.97
2022-09-28T05:45:33.371Z,82.20
2022-09-28T05:46:35.219Z,82.01
2022-09-28T05:47:40.346Z,82.15
2022-09-28T05:48:42.548Z,81.95
2022-09-28T05:49:44.594Z,82.02
2022-09-28T05:50:51.650Z,82.00
2022-09-28T05:51:53.303Z,82.29
2022-09-28T05:53:04.297Z,82.20
2022-09-28T05:54:06.501Z,82.11
2022-09-28T05:55:12.746Z,82.16
2022-09-28T05:56:16.694Z,82.13
2022-09-28T05:57:19.567Z,82.08
2022-09-28T05:58:21.235Z,82.17
2022-09-28T05:59:22.931Z,82.27
2022-09-28T06:00:26.542Z,82.29
2022-09-28T06:01:28.529Z,82.35
2022-09-28T06:02:32.239Z,82.50
2022-09-28T06:03:34.274Z,82.28
2022-09-28T06:04:36.140Z,82.39
2022-09-28T06:05:41.326Z,82.42
2022-09-28T06:06:43.098Z,82.32
2022-09-28T06:07:45.155Z,82.32
2022-09-28T06:08:47.783Z,82.34
2022-09-28T06:10:18.597Z,82.82
2022-09-28T06:11:20.551Z,82.70
2022-09-28T06:12:22.356Z,82.72
2022-09-28T06:13:29.088Z,82.69
2022-09-28T06:14:30.755Z,82.90
2022-09-28T06:15:34.130Z,82.81
2022-09-28T06:16:41.630Z,82.68
2022-09-28T06:17:45.701Z,82.93
2022-09-28T06:19:11.169Z,83.24
2022-09-28T06:20:42.444Z,83.20
2022-09-28T06:21:48.989Z,83.13
2022-09-28T06:22:52.555Z,82.91
2022-09-28T06:23:54.384Z,82.85
2022-09-28T06:24:56.125Z,82.83
2022-09-28T06:25:59.989Z,82.88
2022-09-28T06:27:02.655Z,82.86
2022-09-28T06:28:13.142Z,82.75
2022-09-28T06:29:19.594Z,82.93
2022-09-28T06:30:23.535Z,83.01
2022-09-28T06:31:25.846Z,83.03
2022-09-28T06:32:29.285Z,83.08
2022-09-28T06:33:31.377Z,82.95
2022-09-28T06:34:34.243Z,82.93
2022-09-28T06:35:35.992Z,82.98
2022-09-28T06:36:38.349Z,82.98
2022-09-28T06:37:44.215Z,83.10
2022-09-28T06:38:46.595Z,83.04
2022-09-28T06:39:49.329Z,83.00
2022-09-28T06:40:51.130Z,82.98
2022-09-28T06:41:52.873Z,83.08
2022-09-28T06:43:00.552Z,83.02
2022-09-28T06:44:20.877Z,83.16
2022-09-28T06:45:42.677Z,83.28
2022-09-28T06:47:04.808Z,83.48
2022-09-28T06:48:32.852Z,83.40
2022-09-28T06:49:34.924Z,83.23
2022-09-28T06:50:45.757Z,83.27
2022-09-28T06:52:07.819Z,83.36
2022-09-28T06:53:28.793Z,83.76
2022-09-28T06:55:06.238Z,83.76
2022-09-28T06:56:20.415Z,83.53
2022-09-28T06:57:22.183Z,83.32
2022-09-28T06:58:27.536Z,83.29
2022-09-28T06:59:31.806Z,83.40
2022-09-28T07:00:37.190Z,83.43
2022-09-28T07:01:39.049Z,83.31
2022-09-28T07:02:54.158Z,83.31
2022-09-28T07:04:13.407Z,83.46
2022-09-28T07:05:36.258Z,83.65
2022-09-28T07:06:59.058Z,83.71
2022-09-28T07:08:21.412Z,83.69
2022-09-28T07:09:42.713Z,83.70
2022-09-28T07:10:55.751Z,83.74
2022-09-28T07:12:09.496Z,83.52
2022-09-28T07:13:49.126Z,83.41
2022-09-28T07:14:56.555Z,83.39
2022-09-28T07:16:01.179Z,83.33
2022-09-28T07:17:14.088Z,83.17
2022-09-28T07:18:18.028Z,83.35
2022-09-28T07:19:19.665Z,83.26
2022-09-28T07:20:21.328Z,83.35
2022-09-28T07:21:29.588Z,83.44
2022-09-28T07:22:41.894Z,83.43
2022-09-28T07:23:53.439Z,83.74
2022-09-28T07:24:58.338Z,83.73
2022-09-28T07:26:24.309Z,83.70
2022-09-28T07:27:36.612Z,83.64
2022-09-28T07:28:57.095Z,83.77
2022-09-28T07:30:08.972Z,84.57
2022-09-28T07:31:29.373Z,84.14
2022-09-28T07:32:47.774Z,83.92
2022-09-28T07:33:55.825Z,83.81
2022-09-28T07:35:09.033Z,83.77
2022-09-28T07:36:22.107Z,83.85
2022-09-28T07:37:25.927Z,83.85
2022-09-28T07:38:28.648Z,83.81
2022-09-28T07:39:31.327Z,83.87
2022-09-28T07:40:53.386Z,83.91
2022-09-28T07:41:59.688Z,84.23
2022-09-28T07:43:05.419Z,84.12
2022-09-28T07:44:07.173Z,84.11
2022-09-28T07:45:10.758Z,84.18
2022-09-28T07:46:12.749Z,84.07
2022-09-28T07:47:28.597Z,84.09
2022-09-28T07:49:08.311Z,84.13
2022-09-28T07:50:31.785Z,84.62
2022-09-28T07:52:02.395Z,84.41
2022-09-28T07:53:04.046Z,84.28
2022-09-28T07:54:17.170Z,84.28
2022-09-28T07:55:52.255Z,84.70
2022-09-28T07:57:08.334Z,84.59
2022-09-28T07:58:24.550Z,84.39
2022-09-28T07:59:53.735Z,84.46
2022-09-28T08:01:18.306Z,84.40
2022-09-28T08:02:21.516Z,84.45
2022-09-28T08:03:23.231Z,84.57
2022-09-28T08:04:25.236Z,84.59
2022-09-28T08:05:31.522Z,84.61
2022-09-28T08:06:34.110Z,84.75
2022-09-28T08:07:37.755Z,84.74
2022-09-28T08:08:43.974Z,84.80
2022-09-28T08:09:47.800Z,84.99
2022-09-28T08:11:16.026Z,85.12
2022-09-28T08:12:40.178Z,85.07
2022-09-28T08:14:02.242Z,85.17
2022-09-28T08:15:26.866Z,85.28
2022-09-28T08:17:49.653Z,85.35
2022-09-28T08:18:54.835Z,85.16
2022-09-28T08:20:15.250Z,85.20
2022-09-28T08:21:35.490Z,85.46
2022-09-28T08:22:37.998Z,86.70
2022-09-28T08:23:40.423Z,85.83
2022-09-28T08:24:42.228Z,85.51
2022-09-28T08:25:48.462Z,85.33
2022-09-28T08:26:50.180Z,85.40
2022-09-28T08:27:55.550Z,85.38
2022-09-28T08:28:58.236Z,85.44
2022-09-28T08:30:15.649Z,85.40
2022-09-28T08:31:30.598Z,85.45
2022-09-28T08:32:51.305Z,85.35
2022-09-28T08:34:13.685Z,85.31
2022-09-28T08:35:33.748Z,85.26
2022-09-28T08:37:03.364Z,85.31
2022-09-28T08:38:30.186Z,85.40
2022-09-28T08:39:37.885Z,85.30
2022-09-28T08:41:17.688Z,85.22
2022-09-28T08:42:41.407Z,85.10
2022-09-28T08:44:16.262Z,85.67
2022-09-28T08:45:36.919Z,85.46
2022-09-28T08:47:04.901Z,85.47
2022-09-28T08:48:45.680Z,85.50
2022-09-28T08:50:18.179Z,85.92
2022-09-28T08:51:52.956Z,85.50
2022-09-28T08:53:30.811Z,85.70
2022-09-28T08:54:53.949Z,85.86
2022-09-28T08:56:31.162Z,85.60
2022-09-28T08:57:37.553Z,85.08
2022-09-28T08:58:42.646Z,84.88
2022-09-28T08:59:59.140Z,84.88
2022-09-28T09:01:11.048Z,85.09
2022-09-28T09:02:36.129Z,85.06
2022-09-28T09:04:06.400Z,85.59
2022-09-28T09:05:15.514Z,85.26
2022-09-28T09:06:54.337Z,85.27
2022-09-28T09:08:45.218Z,85.65
2022-09-28T09:10:11.177Z,86.02
2022-09-28T09:11:27.682Z,85.65
2022-09-28T09:12:47.581Z,85.20
2022-09-28T09:14:16.171Z,85.25
2022-09-28T09:15:48.171Z,85.11
2022-09-28T09:17:17.810Z,85.50
2022-09-28T09:19:03.975Z,85.70
2022-09-28T09:20:52.889Z,84.98
2022-09-28T09:22:20.507Z,85.40
2022-09-28T09:23:28.641Z,84.53
2022-09-28T09:24:47.967Z,84.37
2022-09-28T09:25:54.379Z,84.50
2022-09-28T09:27:30.584Z,84.39
2022-09-28T09:28:42.993Z,84.41
2022-09-28T09:29:57.820Z,84.25
2022-09-28T09:31:26.514Z,84.11
2022-09-28T09:32:52.672Z,83.99
2022-09-28T09:34:31.660Z,84.01
2022-09-28T09:36:08.847Z,84.18
2022-09-28T09:37:47.607Z,84.76
2022-09-28T09:39:42.886Z,84.64
2022-09-28T09:41:50.175Z,84.81
2022-09-28T09:43:26.773Z,84.72
2022-09-28T09:45:13.926Z,84.17
2022-09-28T09:46:37.370Z,84.48
2022-09-28T09:48:33.286Z,85.61
2022-09-28T09:49:38.630Z,85.17
2022-09-28T09:50:48.966Z,84.96
2022-09-28T09:52:01.485Z,85.41
2022-09-28T09:53:18.997Z,86.25
2022-09-28T09:54:27.619Z,85.68
2022-09-28T09:55:41.245Z,85.66
2022-09-28T09:57:22.143Z,86.80
2022-09-28T09:58:40.732Z,86.82
2022-09-28T09:59:58.257Z,86.66
2022-09-28T10:01:21.459Z,86.67
2022-09-28T10:02:44.464Z,87.11
2022-09-28T10:03:55.885Z,87.01
2022-09-28T10:05:12.974Z,86.75
2022-09-28T10:06:19.740Z,86.76
2022-09-28T10:07:25.166Z,86.54
2022-09-28T10:08:27.729Z,86.44
2022-09-28T10:09:38.913Z,86.40
2022-09-28T10:11:12.118Z,86.47
2022-09-28T10:12:19.057Z,86.81
2022-09-28T10:13:20.807Z,86.65
2022-09-28T10:14:24.251Z,86.72
2022-09-28T10:15:47.431Z,86.73
2022-09-28T10:16:57.462Z,86.47
2022-09-28T10:18:20.699Z,86.55
2022-09-28T10:19:45.690Z,86.42
2022-09-28T10:21:20.944Z,86.86
2022-09-28T10:22:30.896Z,86.58
2022-09-28T10:23:36.494Z,86.52
2022-09-28T10:24:50.606Z,86.39
2022-09-28T10:25:58.811Z,86.26
2022-09-28T10:27:08.015Z,86.36
2022-09-28T10:28:19.895Z,86.28
2022-09-28T10:29:25.299Z,86.22
2022-09-28T10:30:27.830Z,86.24
2022-09-28T10:31:42.749Z,86.30
2022-09-28T10:33:01.822Z,86.52
2022-09-28T10:34:10.006Z,86.06
2022-09-28T10:35:17.926Z,86.02
2022-09-28T10:36:20.589Z,86.15
2022-09-28T10:37:23.664Z,86.09
2022-09-28T10:38:47.264Z,86.07
2022-09-28T10:39:59.824Z,85.90
2022-09-28T10:41:12.758Z,86.10
2022-09-28T10:42:33.110Z,86.11
2022-09-28T10:44:05.354Z,85.35
2022-09-28T10:45:22.794Z,86.79
2022-09-28T10:46:24.848Z,86.10
2022-09-28T10:47:32.013Z,85.74
2022-09-28T10:48:48.293Z,85.56
2022-09-28T10:49:53.123Z,85.32
2022-09-28T10:50:59.439Z,84.98
2022-09-28T10:52:01.101Z,85.19
2022-09-28T10:53:18.915Z,84.91
2022-09-28T10:54:53.564Z,84.89
2022-09-28T10:56:02.129Z,84.83
2022-09-28T10:57:26.433Z,84.79
2022-09-28T10:58:41.473Z,84.80
2022-09-28T10:59:46.497Z,85.17
2022-09-28T11:01:18.742Z,85.30
2022-09-28T11:02:26.544Z,84.84
2022-09-28T11:03:32.419Z,84.81
2022-09-28T11:04:42.154Z,84.49
2022-09-28T11:06:06.765Z,84.23
2022-09-28T11:07:24.123Z,84.30
2022-09-28T11:08:37.581Z,84.17
2022-09-28T11:09:43.150Z,84.13
2022-09-28T11:10:46.690Z,84.18
2022-09-28T11:11:49.399Z,83.98
2022-09-28T11:12:52.801Z,83.89
2022-09-28T11:14:00.602Z,84.18
2022-09-28T11:15:07.016Z,83.96
2022-09-28T11:16:31.367Z,83.80
2022-09-28T11:17:39.877Z,85.08
2022-09-28T11:18:41.863Z,84.41
2022-09-28T11:19:45.254Z,84.44
2022-09-28T11:20:48.840Z,83.86
2022-09-28T11:21:51.624Z,83.69
2022-09-28T11:22:59.829Z,83.36
2022-09-28T11:24:19.355Z,83.53
2022-09-28T11:25:24.656Z,84.41
2022-09-28T11:26:33.999Z,84.37
2022-09-28T11:27:35.830Z,84.41
2022-09-28T11:28:40.588Z,84.46
2022-09-28T11:29:58.202Z,84.47
2022-09-28T11:31:14.303Z,84.38
2022-09-28T11:32:38.869Z,84.36
2022-09-28T11:34:36.416Z,84.99
2022-09-28T11:36:12.976Z,86.44
2022-09-28T11:37:27.096Z,85.44
2022-09-28T11:38:46.882Z,84.62
2022-09-28T11:40:22.942Z,84.48
2022-09-28T11:41:43.186Z,84.16
2022-09-28T11:43:20.527Z,85.68
2022-09-28T11:44:45.779Z,85.97
2022-09-28T11:46:03.054Z,85.28
2022-09-28T11:47:22.686Z,84.56
2022-09-28T11:48:36.598Z,84.55
2022-09-28T11:49:47.415Z,84.16
2022-09-28T11:50:59.190Z,83.40
2022-09-28T11:52:09.754Z,83.41
2022-09-28T11:53:17.272Z,83.68
2022-09-28T11:54:46.754Z,86.05
2022-09-28T11:56:08.558Z,86.09
2022-09-28T11:57:20.479Z,84.16
2022-09-28T11:58:30.191Z,84.79
2022-09-28T11:59:38.082Z,84.52
2022-09-28T12:00:49.074Z,83.34
2022-09-28T12:01:57.792Z,82.14
2022-09-28T12:03:24.373Z,81.85
2022-09-28T12:04:31.828Z,80.95
2022-09-28T12:05:40.033Z,80.92
2022-09-28T12:07:23.073Z,80.22
2022-09-28T12:08:36.697Z,82.93
2022-09-28T12:10:03.092Z,80.29
2022-09-28T12:11:12.263Z,80.65
2022-09-28T12:12:52.861Z,81.20
2022-09-28T12:13:57.720Z,80.48
2022-09-28T12:15:11.163Z,79.43
2022-09-28T12:16:53.027Z,80.93
2022-09-28T12:18:05.699Z,82.38
2022-09-28T12:19:19.978Z,81.63
2022-09-28T12:20:26.531Z,79.45
2022-09-28T12:21:44.210Z,79.43
2022-09-28T12:23:00.921Z,80.85
2022-09-28T12:24:09.940Z,81.67
2022-09-28T12:25:18.845Z,78.85
2022-09-28T12:26:37.232Z,79.09
2022-09-28T12:27:52.358Z,79.01
2022-09-28T12:28:59.868Z,79.49
2022-09-28T12:30:11.195Z,78.62
2022-09-28T12:31:56.557Z,78.59
2022-09-28T12:33:04.023Z,80.30
2022-09-28T12:34:08.749Z,78.70
2022-09-28T12:35:28.817Z,79.24
2022-09-28T12:36:45.123Z,81.63
2022-09-28T12:38:08.575Z,78.93
2022-09-28T12:39:46.691Z,79.58
2022-09-28T12:40:35.328Z,77.70
2022-09-28T12:41:50.054Z,76.31
2022-09-28T12:43:07.500Z,75.68
2022-09-28T12:44:24.162Z,75.76
2022-09-28T12:46:18.231Z,76.28
2022-09-28T12:47:53.552Z,78.62
2022-09-28T12:50:56.690Z,78.71
2022-09-28T12:52:34.391Z,77.36
2022-09-28T12:54:02.217Z,82.38
2022-09-28T12:55:19.071Z,76.99
2022-09-28T12:56:26.569Z,78.32
2022-09-28T12:57:49.375Z,74.10
2022-09-28T12:59:00.055Z,73.70
2022-09-28T13:00:04.493Z,76.06
2022-09-28T13:01:35.240Z,71.67
2022-09-28T13:03:01.948Z,72.30
2022-09-28T13:04:20.744Z,71.50
2022-09-28T13:05:40.814Z,76.15
2022-09-28T13:06:51.615Z,72.03
2022-09-28T13:08:10.820Z,72.18
2022-09-28T13:09:24.045Z,74.19
2022-09-28T13:10:57.923Z,73.73
2022-09-28T13:12:37.473Z,75.14
2022-09-28T13:13:48.128Z,72.92
2022-09-28T13:15:16.722Z,72.84
2022-09-28T13:16:40.919Z,75.43
2022-09-28T13:17:51.188Z,75.99
2022-09-28T13:18:59.321Z,74.51
2022-09-28T13:20:13.387Z,77.08
2022-09-28T13:21:27.669Z,74.77
2022-09-28T13:22:56.635Z,73.42
2022-09-28T13:24:14.343Z,77.38
2022-09-28T13:25:26.570Z,70.57
2022-09-28T13:26:29.910Z,69.36
2022-09-28T13:27:37.475Z,70.01
2022-09-28T13:28:42.565Z,68.41
2022-09-28T13:29:49.711Z,69.08
2022-09-28T13:30:53.294Z,72.42
2022-09-28T13:31:58.236Z,70.22
2022-09-28T13:33:03.559Z,67.62
2022-09-28T13:34:10.066Z,66.83
2022-09-28T13:35:20.256Z,67.07
2022-09-28T13:36:29.814Z,68.18
2022-09-28T13:37:33.755Z,69.28
2022-09-28T13:38:55.784Z,67.02
2022-09-28T13:39:58.350Z,70.97
2022-09-28T13:41:03.207Z,68.10
2022-09-28T13:42:08.572Z,69.04
2022-09-28T13:43:26.747Z,68.34
2022-09-28T13:45:00.919Z,71.67
2022-09-28T13:46:09.769Z,72.25
2022-09-28T13:47:11.540Z,68.26
2022-09-28T13:48:22.994Z,68.70
2022-09-28T13:49:58.123Z,69.30
2022-09-28T13:51:12.362Z,75.95
2022-09-28T13:53:05.555Z,72.18
2022-09-28T13:54:41.703Z,78.16
2022-09-28T13:55:46.568Z,73.28
2022-09-28T13:56:58.236Z,67.70
2022-09-28T13:58:26.021Z,70.76
2022-09-28T13:59:31.808Z,69.52
2022-09-28T14:00:50.942Z,67.02
2022-09-28T14:02:14.530Z,68.54
2022-09-28T14:03:27.702Z,70.38
2022-09-28T14:04:59.037Z,68.14
2022-09-28T14:06:24.131Z,68.10
2022-09-28T14:07:34.934Z,67.65
2022-09-28T14:08:44.467Z,67.14
2022-09-28T14:10:17.632Z,67.95
2022-09-28T14:11:39.528Z,67.84
2022-09-28T14:12:51.509Z,71.95
2022-09-28T14:14:00.448Z,70.96
2022-09-28T14:15:25.497Z,68.42
2022-09-28T14:16:32.736Z,71.16
2022-09-28T14:17:52.406Z,67.68
2022-09-28T14:19:12.566Z,67.99
2022-09-28T14:20:16.088Z,68.33
2022-09-28T14:21:39.329Z,67.76
2022-09-28T14:23:14.341Z,72.41
2022-09-28T14:24:34.111Z,72.40
2022-09-28T14:25:43.035Z,68.82
2022-09-28T14:26:57.353Z,68.34
2022-09-28T14:28:23.980Z,69.59
2022-09-28T14:29:31.507Z,72.25
2022-09-28T14:30:42.328Z,69.15
2022-09-28T14:31:44.653Z,70.28
2022-09-28T14:32:57.785Z,69.55
2022-09-28T14:34:02.725Z,68.97
2022-09-28T14:35:18.775Z,70.45
2022-09-28T14:36:46.746Z,71.16
2022-09-28T14:38:11.281Z,73.05
2022-09-28T14:39:47.767Z,73.53
2022-09-28T14:41:11.910Z,74.01
2022-09-28T14:42:19.223Z,73.17
2022-09-28T14:43:34.564Z,71.45
2022-09-28T14:45:07.140Z,71.58
2022-09-28T14:46:10.266Z,72.96
2022-09-28T14:47:40.609Z,71.35
2022-09-28T14:48:55.250Z,74.16
2022-09-28T14:50:16.920Z,74.08
2022-09-28T14:51:32.356Z,73.57
2022-09-28T14:52:46.663Z,73.38
2022-09-28T14:53:50.986Z,73.30
2022-09-28T14:54:53.984Z,72.61
2022-09-28T14:55:59.280Z,71.88
2022-09-28T14:57:07.503Z,71.48
2022-09-28T14:58:19.066Z,72.43
2022-09-28T14:59:24.975Z,71.33
2022-09-28T15:00:29.736Z,71.44
2022-09-28T15:01:34.880Z,71.40
2022-09-28T15:02:37.997Z,70.85
2022-09-28T15:03:41.641Z,70.29
2022-09-28T15:04:48.107Z,72.09
2022-09-28T15:05:51.719Z,71.80
2022-09-28T15:06:53.969Z,72.36
2022-09-28T15:07:56.497Z,72.82
2022-09-28T15:08:58.247Z,73.01
2022-09-28T15:10:01.983Z,71.65
2022-09-28T15:11:23.701Z,73.22
2022-09-28T15:12:32.039Z,70.85
2022-09-28T15:13:34.498Z,70.71
2022-09-28T15:14:45.514Z,71.44
2022-09-28T15:15:50.753Z,70.69
2022-09-28T15:16:54.470Z,72.42
2022-09-28T15:18:26.851Z,71.60
2022-09-28T15:19:55.048Z,76.84
2022-09-28T15:20:57.266Z,76.73
2022-09-28T15:21:59.216Z,72.38
2022-09-28T15:23:00.847Z,72.20
2022-09-28T15:24:02.992Z,72.30
2022-09-28T15:25:14.518Z,71.52
2022-09-28T15:26:24.557Z,73.65
2022-09-28T15:27:34.233Z,73.21
2022-09-28T15:28:42.648Z,72.93
2022-09-28T15:29:58.987Z,74.63
2022-09-28T15:31:04.765Z,72.20
2022-09-28T15:32:23.098Z,73.75
2022-09-28T15:33:48.774Z,76.09
2022-09-28T15:34:50.909Z,76.88